Time;durP1;ratioP1;P1;durP2;ratioP2;P2;SDS_P1;SDS_P2;PMS_P1;PMS_P2;Temp;Humidity;BMP_temperature;BMP_pressure;BME280_temperature;BME280_humidity;BME280_pressure;Samples;Min_cycle;Max_cycle;Signal;HPM_P1;HPM_P2
2023/04/28 00:01:11;;;;;;;;;;;;;;;11.50;43.23;101031.22;4956807;27;98274;-77
2023/04/28 00:03:38;;;;;;;;;;;;;;;11.49;43.46;101029.59;4962860;27;99134;-78
2023/04/28 00:06:05;;;;;;;;;;;;;;;11.49;43.16;101026.91;4947373;27;98109;-71
2023/04/28 00:08:32;;;;;;;;;;;;;;;11.48;43.46;101027.19;4944172;27;98427;-72
2023/04/28 00:10:59;;;;;;;;;;;;;;;11.47;43.47;101018.25;4961439;27;98344;-78
2023/04/28 00:13:26;;;;;;;;;;;;;;;11.46;43.29;101013.13;4947620;27;98420;-72
2023/04/28 00:15:53;;;;;;;;;;;;;;;11.44;43.29;101021.47;4958105;27;97994;-72
2023/04/28 00:18:21;;;;;;;;;;;;;;;11.43;43.39;101019.03;4945556;27;99901;-78
2023/04/28 00:20:49;;;;;;;;;;;;;;;11.43;43.31;101027.13;4972434;27;99558;-78
2023/04/28 00:23:16;;;;;;;;;;;;;;;11.41;43.37;101022.00;4947963;27;97957;-71
2023/04/28 00:25:44;;;;;;;;;;;;;;;11.41;43.29;101021.19;4957591;27;98198;-77
2023/04/28 00:28:13;;;;;;;;;;;;;;;11.40;43.34;101006.06;4963647;27;98813;-77
2023/04/28 00:30:39;;;;;;;;;;;;;;;11.39;43.52;101012.53;4961979;27;99086;-78
2023/04/28 00:33:06;;;;;;;;;;;;;;;11.38;43.51;101008.19;4963631;27;98222;-71
2023/04/28 00:35:33;;;;;;;;;;;;;;;11.38;43.15;101005.50;4945826;27;98225;-71
2023/04/28 00:37:59;;;;;;;;;;;;;;;11.37;43.34;101006.59;4953823;27;98176;-71
2023/04/28 00:40:34;;;;;;;;;;;;;;;11.34;43.24;100997.09;4963568;27;98115;-72
2023/04/28 00:43:00;;;;;;;;;;;;;;;11.34;43.38;100990.91;4942883;27;98603;-71
2023/04/28 00:45:27;;;;;;;;;;;;;;;11.33;43.52;100991.97;4975828;27;98392;-72
2023/04/28 00:47:55;;;;;;;;;;;;;;;11.31;43.58;100993.03;4956953;27;98623;-77
2023/04/28 00:50:23;;;;;;;;;;;;;;;11.30;43.29;100977.91;4960659;27;98413;-78
2023/04/28 00:52:51;;;;;;;;;;;;;;;11.29;43.55;100981.69;4946461;27;97931;-79
2023/04/28 00:55:17;;;;;;;;;;;;;;;11.29;43.27;100981.69;4963197;27;98206;-71
2023/04/28 00:57:45;;;;;;;;;;;;;;;11.29;43.28;100975.50;4937258;27;97967;-71
2023/04/28 01:00:13;;;;;;;;;;;;;;;11.27;43.18;100975.72;4960532;27;97981;-77
2023/04/28 01:02:39;;;;;;;;;;;;;;;11.27;43.21;100974.91;4961745;27;97950;-78
2023/04/28 01:05:06;;;;;;;;;;;;;;;11.25;43.47;100971.69;4972771;27;98280;-71
2023/04/28 01:07:33;;;;;;;;;;;;;;;11.25;43.59;100971.69;4950112;27;98755;-71
2023/04/28 01:09:59;;;;;;;;;;;;;;;11.24;43.63;100964.66;4961366;28;97914;-71
2023/04/28 01:12:27;;;;;;;;;;;;;;;11.22;43.29;100961.41;4974695;27;98281;-77
2023/04/28 01:14:56;;;;;;;;;;;;;;;11.21;43.41;100954.38;4961294;27;98439;-78
2023/04/28 01:17:22;;;;;;;;;;;;;;;11.20;43.29;100958.97;4940379;28;101438;-78
2023/04/28 01:19:49;;;;;;;;;;;;;;;11.19;43.22;100965.41;4962716;27;98230;-71
2023/04/28 01:22:15;;;;;;;;;;;;;;;11.17;43.27;100956.78;4957426;28;98121;-71
2023/04/28 01:24:42;;;;;;;;;;;;;;;11.17;43.29;100953.28;4946272;28;98039;-77
2023/04/28 01:27:09;;;;;;;;;;;;;;;11.16;43.71;100949.78;4976284;27;98094;-77
2023/04/28 01:29:35;;;;;;;;;;;;;;;11.14;43.40;100949.22;4966237;27;98579;-71
2023/04/28 01:32:02;;;;;;;;;;;;;;;11.14;43.32;100957.31;4962242;28;97961;-71
2023/04/28 01:34:29;;;;;;;;;;;;;;;11.12;43.07;100956.75;4973009;27;98247;-77
2023/04/28 01:36:55;;;;;;;;;;;;;;;11.11;43.48;100952.41;4964085;28;97994;-71
2023/04/28 01:39:21;;;;;;;;;;;;;;;11.12;43.66;100950.53;4962848;28;99698;-70
2023/04/28 01:41:48;;;;;;;;;;;;;;;11.11;43.54;100946.22;4961371;28;97915;-71
2023/04/28 01:44:14;;;;;;;;;;;;;;;11.10;43.30;100947.28;4964246;28;98116;-70
2023/04/28 01:46:41;;;;;;;;;;;;;;;11.09;43.59;100941.09;4947252;28;97970;-77
2023/04/28 01:49:08;;;;;;;;;;;;;;;11.09;43.70;100940.28;4941094;28;98039;-77
2023/04/28 01:51:35;;;;;;;;;;;;;;;11.08;43.29;100942.13;4973163;27;98039;-71
2023/04/28 01:54:01;;;;;;;;;;;;;;;11.07;43.47;100932.41;4964921;27;97910;-77
2023/04/28 01:56:28;;;;;;;;;;;;;;;11.06;43.30;100934.31;4962499;28;98349;-71
2023/04/28 01:58:54;;;;;;;;;;;;;;;11.05;43.58;100927.28;4957600;27;97848;-77
2023/04/28 02:01:20;;;;;;;;;;;;;;;11.03;43.29;100926.72;4962473;28;98213;-71
2023/04/28 02:03:49;;;;;;;;;;;;;;;11.02;43.67;100927.00;4961908;28;98235;-77
2023/04/28 02:06:17;;;;;;;;;;;;;;;11.00;43.50;100927.28;4962007;28;98436;-77
2023/04/28 02:08:44;;;;;;;;;;;;;;;11.00;43.53;100921.03;4974008;27;98137;-71
2023/04/28 02:11:12;;;;;;;;;;;;;;;10.99;43.52;100928.31;4967486;27;98159;-71
2023/04/28 02:13:39;;;;;;;;;;;;;;;10.99;43.50;100927.50;4966093;27;98285;-77
2023/04/28 02:16:06;;;;;;;;;;;;;;;10.98;43.34;100923.19;4945632;27;98463;-71
2023/04/28 02:18:35;;;;;;;;;;;;;;;10.97;43.38;100922.38;4974643;27;100851;-77
2023/04/28 02:21:11;;;;;;;;;;;;;;;10.94;43.24;100917.50;4959382;27;98089;-72
2023/04/28 02:23:38;;;;;;;;;;;;;;;10.93;43.28;100906.97;4949745;27;98207;-71
2023/04/28 02:26:05;;;;;;;;;;;;;;;10.92;43.77;100914.22;4963094;27;98298;-71
2023/04/28 02:28:31;;;;;;;;;;;;;;;10.91;43.22;100907.22;4944827;27;99569;-70
2023/04/28 02:31:08;;;;;;;;;;;;;;;10.90;43.42;100912.88;4948120;27;98364;-71
2023/04/28 02:33:35;;;;;;;;;;;;;;;10.88;43.13;100913.13;4965694;27;100538;-71
2023/04/28 02:36:02;;;;;;;;;;;;;;;10.88;43.17;100909.63;4963709;27;99586;-71
2023/04/28 02:38:28;;;;;;;;;;;;;;;10.86;43.69;100901.00;4965012;27;98020;-71
2023/04/28 02:41:05;;;;;;;;;;;;;;;10.85;43.82;100902.88;4946957;27;97925;-77
2023/04/28 02:43:32;;;;;;;;;;;;;;;10.84;43.55;100906.63;4963509;27;98279;-77
2023/04/28 02:45:58;;;;;;;;;;;;;;;10.84;43.80;100900.41;4948825;27;98019;-77
2023/04/28 02:48:24;;;;;;;;;;;;;;;10.81;43.84;100894.50;4958740;27;98225;-71
2023/04/28 02:50:51;;;;;;;;;;;;;;;10.79;43.49;100896.63;4948947;27;97998;-77
2023/04/28 02:53:19;;;;;;;;;;;;;;;10.79;43.38;100887.72;4960460;27;98048;-77
2023/04/28 02:55:46;;;;;;;;;;;;;;;10.78;43.19;100886.09;4962819;27;98748;-77
2023/04/28 02:58:12;;;;;;;;;;;;;;;10.77;43.67;100879.91;4960117;27;98479;-77
2023/04/28 03:00:39;;;;;;;;;;;;;;;10.77;43.49;100881.78;4957301;27;98158;-71
2023/04/28 03:03:06;;;;;;;;;;;;;;;10.77;43.31;100879.09;4958190;27;98178;-71
2023/04/28 03:05:33;;;;;;;;;;;;;;;10.76;43.56;100882.84;4955862;27;98127;-77
2023/04/28 03:08:00;;;;;;;;;;;;;;;10.75;43.45;100879.34;4951770;27;98563;-71
2023/04/28 03:10:27;;;;;;;;;;;;;;;10.75;43.42;100871.25;4948148;27;97956;-71
2023/04/28 03:12:53;;;;;;;;;;;;;;;10.76;43.19;100872.06;4949639;27;98251;-71
2023/04/28 03:15:19;;;;;;;;;;;;;;;10.75;43.21;100873.13;4965597;27;98159;-71
2023/04/28 03:17:46;;;;;;;;;;;;;;;10.74;43.81;100868.81;4943613;27;98391;-76
2023/04/28 03:20:13;;;;;;;;;;;;;;;10.74;43.18;100868.81;4945908;27;98231;-71
2023/04/28 03:22:39;;;;;;;;;;;;;;;10.74;43.67;100866.13;4963816;27;99563;-71
2023/04/28 03:25:06;;;;;;;;;;;;;;;10.73;43.36;100867.19;4947759;27;98268;-71
2023/04/28 03:27:33;;;;;;;;;;;;;;;10.72;43.84;100858.28;4960515;27;97969;-78
2023/04/28 03:29:59;;;;;;;;;;;;;;;10.73;43.61;100857.22;4948179;27;98272;-71
2023/04/28 03:32:26;;;;;;;;;;;;;;;10.72;43.85;100852.88;4959955;27;98224;-71
2023/04/28 03:34:53;;;;;;;;;;;;;;;10.72;43.48;100847.47;4945216;27;98733;-77
2023/04/28 03:37:21;;;;;;;;;;;;;;;10.73;43.22;100851.03;4957928;27;98434;-77
2023/04/28 03:39:48;;;;;;;;;;;;;;;10.72;43.74;100844.78;4963201;27;99925;-77
2023/04/28 03:42:15;;;;;;;;;;;;;;;10.72;43.54;100855.56;4966336;27;98359;-71
2023/04/28 03:44:42;;;;;;;;;;;;;;;10.72;43.74;100841.28;4948045;27;97939;-71
2023/04/28 03:47:10;;;;;;;;;;;;;;;10.71;43.15;100850.44;4959774;27;99932;-77
2023/04/28 03:49:37;;;;;;;;;;;;;;;10.73;43.29;100851.03;4950336;27;97864;-77
2023/04/28 03:52:06;;;;;;;;;;;;;;;10.73;43.59;100849.13;4965115;27;98564;-77
2023/04/28 03:54:33;;;;;;;;;;;;;;;10.72;43.45;100849.38;4939202;27;98720;-77
2023/04/28 03:57:00;;;;;;;;;;;;;;;10.73;43.16;100843.75;4964374;27;98610;-71
2023/04/28 03:59:27;;;;;;;;;;;;;;;10.74;43.33;100834.56;4946284;27;101042;-71
2023/04/28 04:01:55;;;;;;;;;;;;;;;10.75;43.29;100841.56;4942848;27;97905;-71
2023/04/28 04:04:22;;;;;;;;;;;;;;;10.76;43.72;100835.09;4957895;27;99342;-71
2023/04/28 04:06:50;;;;;;;;;;;;;;;10.78;43.35;100838.38;4946774;27;98582;-71
2023/04/28 04:09:16;;;;;;;;;;;;;;;10.80;43.23;100835.41;4959755;27;99198;-71
2023/04/28 04:11:45;;;;;;;;;;;;;;;10.80;43.29;100825.44;4960554;27;97959;-78
2023/04/28 04:14:12;;;;;;;;;;;;;;;10.84;43.59;100830.31;4975977;27;98417;-73
2023/04/28 04:16:41;;;;;;;;;;;;;;;10.87;42.94;100822.50;4949703;27;98227;-77
2023/04/28 04:19:09;;;;;;;;;;;;;;;10.89;43.01;100817.69;4963586;27;99049;-77
2023/04/28 04:21:36;;;;;;;;;;;;;;;10.94;43.40;100823.09;4945106;27;98065;-77
2023/04/28 04:24:03;;;;;;;;;;;;;;;10.98;43.27;100821.50;4938378;27;98192;-70
2023/04/28 04:26:30;;;;;;;;;;;;;;;11.02;43.43;100819.09;4962712;27;98245;-71
2023/04/28 04:28:56;;;;;;;;;;;;;;;11.07;43.28;100816.41;4963595;27;98362;-70
2023/04/28 04:31:23;;;;;;;;;;;;;;;11.11;43.22;100812.13;4939085;27;98153;-71
2023/04/28 04:33:49;;;;;;;;;;;;;;;11.14;43.39;100813.50;4959820;27;99953;-71
2023/04/28 04:36:16;;;;;;;;;;;;;;;11.18;43.17;100814.59;4941903;27;98210;-71
2023/04/28 04:38:42;;;;;;;;;;;;;;;11.22;42.98;100815.69;4961417;27;98141;-71
2023/04/28 04:41:14;;;;;;;;;;;;;;;11.25;43.29;100805.19;4952643;27;98306;-77
2023/04/28 04:43:42;;;;;;;;;;;;;;;11.29;43.14;100805.47;4952157;27;98170;-77
2023/04/28 04:46:09;;;;;;;;;;;;;;;11.33;43.19;100805.75;4937102;27;99533;-71
2023/04/28 04:48:35;;;;;;;;;;;;;;;11.36;43.17;100803.34;4942291;27;98011;-71
2023/04/28 04:51:03;;;;;;;;;;;;;;;11.39;42.92;100802.78;4959422;27;98096;-77
2023/04/28 04:53:31;;;;;;;;;;;;;;;11.42;43.00;100791.47;4954524;27;98390;-77
2023/04/28 04:55:58;;;;;;;;;;;;;;;11.46;43.11;100789.06;4943413;27;100203;-77
2023/04/28 04:58:27;;;;;;;;;;;;;;;11.49;43.26;100786.66;4943367;27;98191;-77
2023/04/28 05:00:54;;;;;;;;;;;;;;;11.53;42.96;100778.81;4956883;27;98462;-77
2023/04/28 05:03:21;;;;;;;;;;;;;;;11.57;43.12;100779.91;4946189;27;100548;-71
2023/04/28 05:05:48;;;;;;;;;;;;;;;11.63;42.94;100786.13;4939236;27;98810;-71
2023/04/28 05:08:15;;;;;;;;;;;;;;;11.66;43.19;100772.09;4942109;27;98092;-71
2023/04/28 05:10:42;;;;;;;;;;;;;;;11.72;42.73;100774.56;4954661;27;98701;-77
2023/04/28 05:13:09;;;;;;;;;;;;;;;11.77;42.95;100773.75;4937144;28;99660;-71
2023/04/28 05:15:35;;;;;;;;;;;;;;;11.82;42.94;100773.75;4954794;28;98167;-72
2023/04/28 05:18:08;;;;;;;;;;;;;;;11.87;43.01;100770.25;4955948;28;98391;-77
2023/04/28 05:20:34;;;;;;;;;;;;;;;11.92;42.88;100771.09;4972438;27;98148;-71
2023/04/28 05:23:01;;;;;;;;;;;;;;;11.99;42.86;100766.25;4943126;27;99769;-71
2023/04/28 05:25:28;;;;;;;;;;;;;;;12.07;42.87;100762.19;4958856;28;98072;-78
2023/04/28 05:27:55;;;;;;;;;;;;;;;12.15;42.84;100766.25;4940908;28;98267;-71
2023/04/28 05:30:22;;;;;;;;;;;;;;;12.24;42.69;100764.63;4971485;28;98021;-77
2023/04/28 05:32:49;;;;;;;;;;;;;;;12.33;42.34;100760.28;4956106;27;98309;-77
2023/04/28 05:35:16;;;;;;;;;;;;;;;12.44;42.75;100755.69;4956577;28;98012;-71
2023/04/28 05:37:43;;;;;;;;;;;;;;;12.55;42.56;100756.50;4944263;27;97808;-71
2023/04/28 05:40:10;;;;;;;;;;;;;;;12.64;42.57;100750.25;4944970;28;98176;-78
2023/04/28 05:42:36;;;;;;;;;;;;;;;12.73;42.64;100754.03;4958826;28;98022;-72
2023/04/28 05:45:02;;;;;;;;;;;;;;;12.83;42.52;100749.66;4943510;28;98530;-78
2023/04/28 05:47:30;;;;;;;;;;;;;;;12.93;42.51;100744.19;4956036;28;98672;-77
2023/04/28 05:49:56;;;;;;;;;;;;;;;13.03;42.47;100741.47;4957196;27;98148;-71
2023/04/28 05:52:22;;;;;;;;;;;;;;;13.14;42.33;100747.66;4958719;28;98644;-72
2023/04/28 05:54:49;;;;;;;;;;;;;;;13.25;42.43;100749.25;4962133;28;98560;-78
2023/04/28 05:57:16;;;;;;;;;;;;;;;13.38;42.18;100745.94;4940900;28;98095;-78
2023/04/28 05:59:43;;;;;;;;;;;;;;;13.48;42.17;100742.38;4958152;27;98105;-71
2023/04/28 06:02:11;;;;;;;;;;;;;;;13.62;42.15;100740.63;4957711;28;98290;-77
2023/04/28 06:04:39;;;;;;;;;;;;;;;13.74;41.99;100732.97;4945713;28;98399;-77
2023/04/28 06:07:05;;;;;;;;;;;;;;;13.85;41.95;100728.28;4959667;28;97882;-78
2023/04/28 06:09:32;;;;;;;;;;;;;;;13.91;42.45;100734.47;4953035;28;98413;-78
2023/04/28 06:11:59;;;;;;;;;;;;;;;13.96;42.05;100735.25;4926435;28;97990;-71
2023/04/28 06:14:29;;;;;;;;;;;;;;;14.06;42.35;100726.22;4919121;28;98168;-77
2023/04/28 06:16:56;;;;;;;;;;;;;;;14.23;42.30;100731.25;4925947;28;98000;-71
2023/04/28 06:19:22;;;;;;;;;;;;;;;14.41;41.76;100722.38;4934723;28;98356;-77
2023/04/28 06:21:51;;;;;;;;;;;;;;;14.62;41.99;100712.19;4924756;28;98043;-71
2023/04/28 06:24:18;;;;;;;;;;;;;;;14.82;41.95;100718.47;4925639;28;99374;-71
2023/04/28 06:26:44;;;;;;;;;;;;;;;14.98;41.66;100720.69;4941793;28;98606;-71
2023/04/28 06:29:11;;;;;;;;;;;;;;;15.24;41.79;100717.63;4925132;28;98017;-78
2023/04/28 06:31:39;;;;;;;;;;;;;;;15.45;41.52;100723.63;4935460;28;98730;-77
2023/04/28 06:34:07;;;;;;;;;;;;;;;15.69;41.33;100720.84;4937515;28;98129;-71
2023/04/28 06:36:34;;;;;;;;;;;;;;;15.79;41.56;100720.66;4925708;28;98075;-71
2023/04/28 06:39:00;;;;;;;;;;;;;;;16.06;41.39;100719.16;4925374;28;98084;-71
2023/04/28 06:41:28;;;;;;;;;;;;;;;16.44;41.05;100717.13;4942429;28;98048;-71
2023/04/28 06:43:54;;;;;;;;;;;;;;;16.49;41.19;100717.03;4921277;28;98039;-71
2023/04/28 06:46:20;;;;;;;;;;;;;;;16.37;41.54;100708.56;4940049;28;98157;-71
2023/04/28 06:48:47;;;;;;;;;;;;;;;16.29;41.74;100709.25;4919994;28;98255;-78
2023/04/28 06:51:18;;;;;;;;;;;;;;;16.27;41.72;100719.59;4922932;28;98298;-78
2023/04/28 06:53:45;;;;;;;;;;;;;;;16.34;41.63;100709.94;4937917;28;98001;-71
2023/04/28 06:56:13;;;;;;;;;;;;;;;16.47;41.54;100704.84;4934155;28;98601;-78
2023/04/28 06:58:40;;;;;;;;;;;;;;;16.59;41.51;100711.41;4935089;28;98075;-78
2023/04/28 07:01:07;;;;;;;;;;;;;;;16.56;41.56;100705.75;4924333;28;99308;-71
2023/04/28 07:03:33;;;;;;;;;;;;;;;16.64;41.55;100702.34;4925010;28;98341;-77
2023/04/28 07:05:59;;;;;;;;;;;;;;;16.78;41.42;100692.31;4924440;28;98170;-71
2023/04/28 07:08:29;;;;;;;;;;;;;;;16.97;41.32;100694.88;4937230;27;98057;-78
2023/04/28 07:10:56;;;;;;;;;;;;;;;17.49;41.00;100680.94;4958994;27;98453;-77
2023/04/28 07:13:24;;;;;;;;;;;;;;;17.72;40.82;100684.47;4958868;27;98246;-71
2023/04/28 07:15:50;;;;;;;;;;;;;;;17.86;40.78;100683.34;4964649;27;98119;-71
2023/04/28 07:18:17;;;;;;;;;;;;;;;18.33;40.57;100667.41;4942007;27;97913;-77
2023/04/28 07:20:43;;;;;;;;;;;;;;;18.74;40.46;100663.53;4962078;27;99595;-78
2023/04/28 07:23:11;;;;;;;;;;;;;;;19.02;40.22;100671.47;4959373;27;98712;-78
2023/04/28 07:25:39;;;;;;;;;;;;;;;19.42;39.98;100658.50;4945388;27;98100;-78
2023/04/28 07:28:06;;;;;;;;;;;;;;;20.03;39.50;100653.75;4961718;27;98192;-71
2023/04/28 07:30:33;;;;;;;;;;;;;;;20.77;39.17;100654.47;4958192;27;98050;-71
2023/04/28 07:32:59;;;;;;;;;;;;;;;21.33;38.91;100652.31;4947655;27;98002;-72
2023/04/28 07:35:26;;;;;;;;;;;;;;;21.93;38.63;100658.34;4939710;27;97942;-72
2023/04/28 07:37:53;;;;;;;;;;;;;;;22.61;38.32;100661.47;4961381;27;98139;-72
2023/04/28 07:40:20;;;;;;;;;;;;;;;23.43;37.79;100661.22;4966986;27;98056;-79
2023/04/28 07:42:47;;;;;;;;;;;;;;;24.22;37.73;100655.91;4959752;27;98253;-80
2023/04/28 07:45:15;;;;;;;;;;;;;;;24.88;37.19;100659.06;4949522;27;99514;-80
2023/04/28 07:47:47;;;;;;;;;;;;;;;25.30;37.52;100669.44;4955172;27;98207;-81
2023/04/28 07:50:15;;;;;;;;;;;;;;;25.74;37.51;100658.88;4964960;27;101059;-80
2023/04/28 07:52:43;;;;;;;;;;;;;;;26.32;37.46;100655.22;4949396;27;98531;-80
2023/04/28 07:55:10;;;;;;;;;;;;;;;26.92;37.16;100656.19;4947171;27;98324;-81
2023/04/28 07:57:37;;;;;;;;;;;;;;;27.47;36.93;100644.66;4960428;27;98382;-73
2023/04/28 08:00:04;;;;;;;;;;;;;;;27.78;36.98;100651.72;4957607;27;98901;-73
2023/04/28 08:02:30;;;;;;;;;;;;;;;28.03;37.39;100640.91;4959164;27;98116;-73
2023/04/28 08:04:57;;;;;;;;;;;;;;;28.53;36.68;100641.34;4958053;27;97980;-73
2023/04/28 08:07:24;;;;;;;;;;;;;;;28.91;36.66;100639.19;4959311;27;97994;-74
2023/04/28 08:09:51;;;;;;;;;;;;;;;29.21;37.13;100633.44;4960577;27;97980;-81
2023/04/28 08:12:18;;;;;;;;;;;;;;;30.12;36.46;100636.03;4958557;27;98224;-74
2023/04/28 08:14:44;;;;;;;;;;;;;;;30.35;36.60;100641.25;4959932;27;98129;-82
2023/04/28 08:17:12;;;;;;;;;;;;;;;31.41;35.94;100633.03;4948322;27;97993;-74
2023/04/28 08:19:39;;;;;;;;;;;;;;;32.28;35.51;100622.91;4962404;27;98217;-82
2023/04/28 08:22:06;;;;;;;;;;;;;;;33.34;34.64;100615.38;4965041;27;100351;-82
2023/04/28 08:24:34;;;;;;;;;;;;;;;34.37;34.47;100624.19;4962893;27;98050;-74
2023/04/28 08:27:04;;;;;;;;;;;;;;;35.47;34.08;100619.66;4948866;27;98229;-75
2023/04/28 08:29:31;;;;;;;;;;;;;;;36.28;33.77;100605.72;4960111;27;98269;-75
2023/04/28 08:32:01;;;;;;;;;;;;;;;36.46;34.24;100601.69;4946229;27;99763;-80
2023/04/28 08:34:28;;;;;;;;;;;;;;;37.44;34.01;100606.91;4957127;27;98013;-82
2023/04/28 08:36:55;;;;;;;;;;;;;;;38.33;33.71;100604.00;4960763;27;100159;-74
2023/04/28 08:39:22;;;;;;;;;;;;;;;39.01;33.34;100605.16;4946352;27;98118;-73
2023/04/28 08:41:49;;;;;;;;;;;;;;;39.64;33.25;100597.47;4958951;27;97993;-82
2023/04/28 08:44:16;;;;;;;;;;;;;;;40.02;33.35;100596.34;4960054;27;98921;-73
2023/04/28 08:46:43;;;;;;;;;;;;;;;40.83;33.26;100587.59;4962528;27;97990;-82
2023/04/28 08:49:15;;;;;;;;;;;;;;;41.47;32.92;100581.00;4977003;27;99860;-73
2023/04/28 08:51:54;;;;;;;;;;;;;;;42.25;32.38;100576.28;4958897;27;98124;-72
2023/04/28 08:54:20;;;;;;;;;;;;;;;42.93;32.59;100575.50;4947583;27;99010;-73
2023/04/28 08:56:48;;;;;;;;;;;;;;;42.74;33.02;100558.69;4940920;27;98104;-73
2023/04/28 08:59:17;;;;;;;;;;;;;;;43.32;32.76;100551.41;4948499;27;98291;-81
2023/04/28 09:01:43;;;;;;;;;;;;;;;43.81;32.65;100563.19;4944101;27;98140;-73
2023/04/28 09:04:10;;;;;;;;;;;;;;;44.73;32.25;100542.59;4955969;27;101383;-82
2023/04/28 09:06:38;;;;;;;;;;;;;;;45.33;32.02;100536.34;4963530;27;98201;-73
2023/04/28 09:09:23;;;;;;;;;;;;;;;45.95;31.88;100537.47;4943598;28;98633;-73
2023/04/28 09:11:58;;;;;;;;;;;;;;;45.96;32.16;100531.25;4956349;27;98128;-73
2023/04/28 09:14:25;;;;;;;;;;;;;;;46.26;32.37;100534.47;4941402;28;98058;-74
2023/04/28 09:16:52;;;;;;;;;;;;;;;46.77;31.83;100530.88;4962825;27;98314;-82
2023/04/28 09:19:21;;;;;;;;;;;;;;;46.64;32.02;100528.56;4934438;28;98119;-83
2023/04/28 09:21:56;;;;;;;;;;;;;;;46.04;32.70;100514.44;4960507;28;97897;-73
2023/04/28 09:24:32;;;;;;;;;;;;;;;45.66;33.46;100515.81;4969209;27;97986;-73
2023/04/28 09:27:01;;;;;;;;;;;;;;;45.54;33.71;100512.94;4972037;27;98199;-82
2023/04/28 09:29:28;;;;;;;;;;;;;;;45.89;33.33;100511.03;4947542;28;98072;-73
2023/04/28 09:32:15;;;;;;;;;;;;;;;45.84;33.77;100509.72;4962144;28;98645;-82
2023/04/28 09:34:47;;;;;;;;;;;;;;;45.42;33.88;100502.00;4970324;27;98023;-82
2023/04/28 09:37:21;;;;;;;;;;;;;;;44.43;34.75;100510.00;4978617;27;97856;-80
2023/04/28 09:39:52;;;;;;;;;;;;;;;44.58;34.18;100493.63;4943832;28;98133;-80
2023/04/28 09:42:38;;;;;;;;;;;;;;;44.89;33.85;100484.34;4963238;28;98155;-73
2023/04/28 09:45:05;;;;;;;;;;;;;;;44.54;34.03;100479.66;4947084;28;97831;-72
2023/04/28 09:47:34;;;;;;;;;;;;;;;43.90;34.36;100475.09;4990201;27;98352;-80
2023/04/28 09:50:05;;;;;;;;;;;;;;;44.37;33.69;100475.88;4960188;28;99519;-71
2023/04/28 09:52:33;;;;;;;;;;;;;;;43.16;34.91;100477.47;4981341;27;99404;-85
2023/04/28 09:55:05;;;;;;;;;;;;;;;41.43;36.33;100474.53;4962431;28;98058;-81
2023/04/28 09:57:33;;;;;;;;;;;;;;;39.79;37.49;100464.41;4959928;28;98378;-72
2023/04/28 10:00:05;;;;;;;;;;;;;;;38.45;38.01;100468.09;4961597;27;98212;-82
2023/04/28 10:02:33;;;;;;;;;;;;;;;37.24;38.93;100461.78;4956314;28;97985;-74
2023/04/28 10:05:02;;;;;;;;;;;;;;;36.28;38.86;100457.06;4979701;27;98188;-82
2023/04/28 10:07:29;;;;;;;;;;;;;;;35.95;38.74;100459.13;4963145;28;97979;-73
2023/04/28 10:10:00;;;;;;;;;;;;;;;35.45;38.62;100465.22;4946833;28;98001;-76
2023/04/28 10:12:27;;;;;;;;;;;;;;;34.72;39.04;100456.91;4947188;28;100414;-76
2023/04/28 10:15:00;;;;;;;;;;;;;;;34.22;38.98;100462.69;4941924;28;98189;-75
2023/04/28 10:17:29;;;;;;;;;;;;;;;34.01;39.03;100458.31;4945981;28;97993;-76
2023/04/28 10:20:03;;;;;;;;;;;;;;;33.67;38.90;100459.28;4948303;28;98252;-82
2023/04/28 10:23:01;;;;;;;;;;;;;;;33.47;38.93;100460.00;4957148;28;97936;-82
2023/04/28 10:25:30;;;;;;;;;;;;;;;33.49;38.05;100459.59;4956279;28;98436;-78
2023/04/28 10:27:58;;;;;;;;;;;;;;;33.07;38.23;100453.44;4945017;28;98005;-75
2023/04/28 10:30:30;;;;;;;;;;;;;;;33.38;37.87;100458.97;4944067;28;97902;-78
2023/04/28 10:33:14;;;;;;;;;;;;;;;32.47;38.59;100453.03;4946387;28;98346;-76
2023/04/28 10:35:45;;;;;;;;;;;;;;;31.84;39.10;100454.50;4986320;27;98334;-81
2023/04/28 10:38:21;;;;;;;;;;;;;;;31.25;39.29;100452.56;4939072;28;98980;-81
2023/04/28 10:41:01;;;;;;;;;;;;;;;30.68;39.46;100450.09;4940975;28;98030;-80
2023/04/28 10:43:38;;;;;;;;;;;;;;;30.07;39.88;100453.84;4955820;28;98181;-73
2023/04/28 10:46:08;;;;;;;;;;;;;;;29.42;40.22;100454.28;4961777;28;98017;-80
2023/04/28 10:48:47;;;;;;;;;;;;;;;28.84;40.36;100456.91;4945310;28;97998;-81
2023/04/28 10:51:14;;;;;;;;;;;;;;;28.29;40.49;100437.66;4970654;28;98083;-73
2023/04/28 10:53:47;;;;;;;;;;;;;;;27.87;40.73;100444.56;4969890;28;98478;-73
2023/04/28 10:56:25;;;;;;;;;;;;;;;27.49;40.94;100433.94;4970259;28;97997;-73
2023/04/28 10:58:53;;;;;;;;;;;;;;;27.16;40.78;100444.72;4948017;28;98213;-75
2023/04/28 11:01:20;;;;;;;;;;;;;;;26.89;40.81;100446.00;4963196;28;98553;-82
2023/04/28 11:03:46;;;;;;;;;;;;;;;26.80;40.50;100440.78;4988979;27;98320;-76
2023/04/28 11:06:25;;;;;;;;;;;;;;;27.02;40.08;100443.75;4979628;28;97853;-72
2023/04/28 11:09:26;;;;;;;;;;;;;;;27.06;39.63;100447.34;4943529;28;97952;-78
2023/04/28 11:12:12;;;;;;;;;;;;;;;27.10;39.55;100450.94;4962006;28;97980;-81
2023/04/28 11:14:40;;;;;;;;;;;;;;;27.10;39.36;100448.19;4940358;28;97995;-81
2023/04/28 11:17:11;;;;;;;;;;;;;;;27.02;39.52;100446.53;4959020;28;98662;-76
2023/04/28 11:19:42;;;;;;;;;;;;;;;26.97;39.42;100444.91;4946064;28;98157;-77
2023/04/28 11:22:22;;;;;;;;;;;;;;;26.87;39.33;100446.34;4944243;28;97988;-73
2023/04/28 11:24:56;;;;;;;;;;;;;;;26.63;39.62;100446.88;4960773;28;99427;-82
2023/04/28 11:27:31;;;;;;;;;;;;;;;26.43;39.65;100446.22;4957051;28;98025;-80
2023/04/28 11:30:00;;;;;;;;;;;;;;;26.26;39.82;100447.56;4960029;28;98325;-73
2023/04/28 11:32:31;;;;;;;;;;;;;;;26.01;39.87;100449.97;4943188;28;98539;-80
2023/04/28 11:35:00;;;;;;;;;;;;;;;25.75;39.98;100455.47;4937611;28;98170;-82
2023/04/28 11:37:27;;;;;;;;;;;;;;;25.52;40.04;100455.50;4951463;28;98243;-81
2023/04/28 11:39:54;;;;;;;;;;;;;;;25.25;40.03;100455.41;4952168;28;98418;-74
2023/04/28 11:42:26;;;;;;;;;;;;;;;25.01;40.20;100456.53;4952460;28;99913;-82
2023/04/28 11:44:53;;;;;;;;;;;;;;;24.80;40.13;100459.69;4941869;28;98108;-82
2023/04/28 11:47:33;;;;;;;;;;;;;;;24.71;40.25;100459.06;4950592;28;97834;-82
2023/04/28 11:50:00;;;;;;;;;;;;;;;24.72;39.73;100457.94;4940967;28;98213;-73
2023/04/28 11:52:26;;;;;;;;;;;;;;;24.85;39.52;100458.56;4940198;28;100388;-73
2023/04/28 11:54:58;;;;;;;;;;;;;;;24.98;39.52;100463.56;4940864;28;98283;-81
2023/04/28 11:57:26;;;;;;;;;;;;;;;24.95;39.64;100464.28;4938114;28;98104;-82
2023/04/28 12:00:10;;;;;;;;;;;;;;;25.14;39.37;100468.22;4940260;28;98920;-74
2023/04/28 12:02:38;;;;;;;;;;;;;;;25.30;39.19;100463.38;4960490;27;100830;-74
2023/04/28 12:05:10;;;;;;;;;;;;;;;25.36;39.16;100461.91;4951825;28;98160;-74
2023/04/28 12:07:47;;;;;;;;;;;;;;;25.40;39.37;100473.03;4955378;27;98519;-75
2023/04/28 12:10:17;;;;;;;;;;;;;;;25.40;39.37;100470.25;4923963;28;100818;-74
2023/04/28 12:12:53;;;;;;;;;;;;;;;25.36;39.53;100470.19;4921436;28;99002;-82
2023/04/28 12:15:20;;;;;;;;;;;;;;;25.31;39.55;100476.03;4919599;28;98151;-74
2023/04/28 12:17:49;;;;;;;;;;;;;;;25.26;39.39;100476.31;4938409;28;98229;-75
2023/04/28 12:20:36;;;;;;;;;;;;;;;25.15;39.75;100472.56;4921025;28;98078;-75
2023/04/28 12:23:04;;;;;;;;;;;;;;;25.04;39.66;100471.56;4950416;28;98306;-81
2023/04/28 12:25:32;;;;;;;;;;;;;;;24.96;39.67;100467.84;4930919;28;98450;-81
2023/04/28 12:28:02;;;;;;;;;;;;;;;24.85;39.91;100475.13;4929606;28;98185;-74
2023/04/28 12:30:32;;;;;;;;;;;;;;;24.67;39.78;100475.53;4937847;28;97968;-74
2023/04/28 12:32:59;;;;;;;;;;;;;;;24.51;40.05;100471.25;4937324;28;99683;-74
2023/04/28 12:35:36;;;;;;;;;;;;;;;24.35;40.06;100471.28;4917184;28;98190;-81
2023/04/28 12:38:06;;;;;;;;;;;;;;;24.19;40.17;100471.34;4935408;28;98169;-81
2023/04/28 12:40:34;;;;;;;;;;;;;;;24.05;40.17;100463.56;4916519;28;98324;-81
2023/04/28 12:43:01;;;;;;;;;;;;;;;23.94;40.22;100470.75;4938957;28;99153;-74